sensor_id;sensor_type;location;lat;lon;timestamp;temperature;humidity
11426;DHT22;5769;47.998;7.788;2023-12-20T00:01:04;19.10;64.80
11426;DHT22;5769;47.998;7.788;2023-12-20T00:03:31;19.10;64.80
11426;DHT22;5769;47.998;7.788;2023-12-20T00:05:58;19.10;64.80
11426;DHT22;5769;47.998;7.788;2023-12-20T00:08:24;19.00;64.80
11426;DHT22;5769;47.998;7.788;2023-12-20T00:10:51;19.10;64.80
11426;DHT22;5769;47.998;7.788;2023-12-20T00:13:19;19.10;64.80
11426;DHT22;5769;47.998;7.788;2023-12-20T00:15:46;19.10;64.80
11426;DHT22;5769;47.998;7.788;2023-12-20T00:18:12;19.10;64.80
11426;DHT22;5769;47.998;7.788;2023-12-20T00:20:39;19.00;64.80
11426;DHT22;5769;47.998;7.788;2023-12-20T00:23:06;19.00;64.70
11426;DHT22;5769;47.998;7.788;2023-12-20T00:25:33;19.00;64.70
11426;DHT22;5769;47.998;7.788;2023-12-20T00:28:00;19.00;64.70
11426;DHT22;5769;47.998;7.788;2023-12-20T00:30:29;19.00;64.80
11426;DHT22;5769;47.998;7.788;2023-12-20T00:32:56;19.00;64.80
11426;DHT22;5769;47.998;7.788;2023-12-20T00:35:22;19.00;64.70
11426;DHT22;5769;47.998;7.788;2023-12-20T00:37:49;19.00;64.70
11426;DHT22;5769;47.998;7.788;2023-12-20T00:40:16;19.00;64.70
11426;DHT22;5769;47.998;7.788;2023-12-20T00:42:43;19.00;64.80
11426;DHT22;5769;47.998;7.788;2023-12-20T00:45:09;19.00;64.80
11426;DHT22;5769;47.998;7.788;2023-12-20T00:47:37;19.00;64.70
11426;DHT22;5769;47.998;7.788;2023-12-20T00:50:05;19.00;64.70
11426;DHT22;5769;47.998;7.788;2023-12-20T00:52:32;19.00;64.80
11426;DHT22;5769;47.998;7.788;2023-12-20T00:54:59;19.00;64.70
11426;DHT22;5769;47.998;7.788;2023-12-20T00:57:26;19.00;64.80
11426;DHT22;5769;47.998;7.788;2023-12-20T00:59:53;19.00;64.80
11426;DHT22;5769;47.998;7.788;2023-12-20T01:02:19;19.00;64.80
11426;DHT22;5769;47.998;7.788;2023-12-20T01:04:47;19.00;64.90
11426;DHT22;5769;47.998;7.788;2023-12-20T01:07:14;19.00;64.90
11426;DHT22;5769;47.998;7.788;2023-12-20T01:09:41;19.00;64.90
11426;DHT22;5769;47.998;7.788;2023-12-20T01:12:08;19.00;64.90
11426;DHT22;5769;47.998;7.788;2023-12-20T01:14:35;19.00;64.90
11426;DHT22;5769;47.998;7.788;2023-12-20T01:17:01;19.00;64.90
11426;DHT22;5769;47.998;7.788;2023-12-20T01:19:28;19.00;65.00
11426;DHT22;5769;47.998;7.788;2023-12-20T01:21:56;19.00;65.00
11426;DHT22;5769;47.998;7.788;2023-12-20T01:24:23;19.00;65.00
11426;DHT22;5769;47.998;7.788;2023-12-20T01:26:50;19.00;65.00
11426;DHT22;5769;47.998;7.788;2023-12-20T01:29:16;19.00;65.00
11426;DHT22;5769;47.998;7.788;2023-12-20T01:31:43;19.00;65.00
11426;DHT22;5769;47.998;7.788;2023-12-20T01:34:10;19.00;64.90
11426;DHT22;5769;47.998;7.788;2023-12-20T01:36:37;19.00;64.90
11426;DHT22;5769;47.998;7.788;2023-12-20T01:39:05;19.00;65.00
11426;DHT22;5769;47.998;7.788;2023-12-20T01:41:31;19.00;64.90
11426;DHT22;5769;47.998;7.788;2023-12-20T01:43:58;19.00;64.90
11426;DHT22;5769;47.998;7.788;2023-12-20T01:46:25;19.00;65.00
11426;DHT22;5769;47.998;7.788;2023-12-20T01:48:52;19.00;65.00
11426;DHT22;5769;47.998;7.788;2023-12-20T01:51:20;19.00;64.90
11426;DHT22;5769;47.998;7.788;2023-12-20T01:53:47;19.00;64.90
11426;DHT22;5769;47.998;7.788;2023-12-20T01:56:16;19.00;64.90
11426;DHT22;5769;47.998;7.788;2023-12-20T01:58:44;19.00;65.60
11426;DHT22;5769;47.998;7.788;2023-12-20T02:01:12;19.00;64.90
11426;DHT22;5769;47.998;7.788;2023-12-20T02:03:39;19.00;64.90
11426;DHT22;5769;47.998;7.788;2023-12-20T02:06:07;19.00;64.90
11426;DHT22;5769;47.998;7.788;2023-12-20T02:08:34;19.00;64.90
11426;DHT22;5769;47.998;7.788;2023-12-20T02:11:01;19.00;64.90
11426;DHT22;5769;47.998;7.788;2023-12-20T02:13:30;18.90;64.90
11426;DHT22;5769;47.998;7.788;2023-12-20T02:15:57;19.00;64.90
11426;DHT22;5769;47.998;7.788;2023-12-20T02:18:24;19.00;64.90
11426;DHT22;5769;47.998;7.788;2023-12-20T02:20:51;19.00;64.90
11426;DHT22;5769;47.998;7.788;2023-12-20T02:23:19;19.00;64.90
11426;DHT22;5769;47.998;7.788;2023-12-20T02:25:46;19.00;64.90
11426;DHT22;5769;47.998;7.788;2023-12-20T02:28:13;19.00;64.90
11426;DHT22;5769;47.998;7.788;2023-12-20T02:30:40;19.00;64.90
11426;DHT22;5769;47.998;7.788;2023-12-20T02:33:08;19.00;64.90
11426;DHT22;5769;47.998;7.788;2023-12-20T02:35:36;19.00;64.90
11426;DHT22;5769;47.998;7.788;2023-12-20T02:38:03;18.90;64.90
11426;DHT22;5769;47.998;7.788;2023-12-20T02:40:31;19.00;64.90
11426;DHT22;5769;47.998;7.788;2023-12-20T02:42:58;18.90;64.80
11426;DHT22;5769;47.998;7.788;2023-12-20T02:45:26;18.90;64.80
11426;DHT22;5769;47.998;7.788;2023-12-20T02:47:53;19.00;64.90
11426;DHT22;5769;47.998;7.788;2023-12-20T02:50:19;18.90;64.90
11426;DHT22;5769;47.998;7.788;2023-12-20T02:52:46;18.90;64.90
11426;DHT22;5769;47.998;7.788;2023-12-20T02:55:13;18.90;64.90
11426;DHT22;5769;47.998;7.788;2023-12-20T02:57:41;18.90;64.90
11426;DHT22;5769;47.998;7.788;2023-12-20T03:00:09;18.90;65.00
11426;DHT22;5769;47.998;7.788;2023-12-20T03:02:35;19.00;65.10
11426;DHT22;5769;47.998;7.788;2023-12-20T03:05:01;18.90;65.00
11426;DHT22;5769;47.998;7.788;2023-12-20T03:07:28;18.90;65.00
11426;DHT22;5769;47.998;7.788;2023-12-20T03:09:55;19.00;65.10
11426;DHT22;5769;47.998;7.788;2023-12-20T03:12:21;18.90;65.00
11426;DHT22;5769;47.998;7.788;2023-12-20T03:14:50;19.00;65.10
11426;DHT22;5769;47.998;7.788;2023-12-20T03:17:16;18.90;65.00
11426;DHT22;5769;47.998;7.788;2023-12-20T03:19:44;18.90;65.10
11426;DHT22;5769;47.998;7.788;2023-12-20T03:22:10;18.90;65.10
11426;DHT22;5769;47.998;7.788;2023-12-20T03:24:37;18.90;65.00
11426;DHT22;5769;47.998;7.788;2023-12-20T03:27:04;18.90;65.00
11426;DHT22;5769;47.998;7.788;2023-12-20T03:29:31;18.90;65.00
11426;DHT22;5769;47.998;7.788;2023-12-20T03:31:59;18.90;65.00
11426;DHT22;5769;47.998;7.788;2023-12-20T03:34:26;18.90;65.00
11426;DHT22;5769;47.998;7.788;2023-12-20T03:36:54;18.90;65.00
11426;DHT22;5769;47.998;7.788;2023-12-20T03:39:21;18.90;65.00
11426;DHT22;5769;47.998;7.788;2023-12-20T03:41:48;18.90;65.00
11426;DHT22;5769;47.998;7.788;2023-12-20T03:44:14;18.90;65.00
11426;DHT22;5769;47.998;7.788;2023-12-20T03:46:41;18.90;65.00
11426;DHT22;5769;47.998;7.788;2023-12-20T03:49:09;18.90;65.00
11426;DHT22;5769;47.998;7.788;2023-12-20T03:51:36;18.90;65.70
11426;DHT22;5769;47.998;7.788;2023-12-20T03:54:03;18.90;65.00
11426;DHT22;5769;47.998;7.788;2023-12-20T03:56:29;18.90;65.00
11426;DHT22;5769;47.998;7.788;2023-12-20T03:58:56;18.90;65.00
11426;DHT22;5769;47.998;7.788;2023-12-20T04:01:23;18.90;65.00
11426;DHT22;5769;47.998;7.788;2023-12-20T04:03:50;18.90;65.00
11426;DHT22;5769;47.998;7.788;2023-12-20T04:06:18;18.90;65.00
11426;DHT22;5769;47.998;7.788;2023-12-20T04:08:45;18.90;65.00
11426;DHT22;5769;47.998;7.788;2023-12-20T04:11:12;18.90;65.00
11426;DHT22;5769;47.998;7.788;2023-12-20T04:13:38;18.90;65.00
11426;DHT22;5769;47.998;7.788;2023-12-20T04:16:06;18.90;65.00
11426;DHT22;5769;47.998;7.788;2023-12-20T04:18:32;18.90;65.00
11426;DHT22;5769;47.998;7.788;2023-12-20T04:20:59;18.90;65.00
11426;DHT22;5769;47.998;7.788;2023-12-20T04:23:27;18.90;65.00
11426;DHT22;5769;47.998;7.788;2023-12-20T04:25:54;18.90;65.00
11426;DHT22;5769;47.998;7.788;2023-12-20T04:28:22;18.90;65.00
11426;DHT22;5769;47.998;7.788;2023-12-20T04:30:48;18.90;65.00
11426;DHT22;5769;47.998;7.788;2023-12-20T04:33:15;18.90;65.00
11426;DHT22;5769;47.998;7.788;2023-12-20T04:35:42;18.90;65.00
11426;DHT22;5769;47.998;7.788;2023-12-20T04:38:11;18.90;65.00
11426;DHT22;5769;47.998;7.788;2023-12-20T04:40:39;18.90;65.00
11426;DHT22;5769;47.998;7.788;2023-12-20T04:43:06;18.90;65.00
11426;DHT22;5769;47.998;7.788;2023-12-20T04:45:34;18.90;65.10
11426;DHT22;5769;47.998;7.788;2023-12-20T04:48:01;18.90;65.10
11426;DHT22;5769;47.998;7.788;2023-12-20T04:50:28;18.90;65.20
11426;DHT22;5769;47.998;7.788;2023-12-20T04:52:54;18.90;65.20
11426;DHT22;5769;47.998;7.788;2023-12-20T04:55:21;18.90;65.20
11426;DHT22;5769;47.998;7.788;2023-12-20T04:57:49;18.90;65.20
11426;DHT22;5769;47.998;7.788;2023-12-20T05:00:16;18.90;65.30
11426;DHT22;5769;47.998;7.788;2023-12-20T05:02:43;18.90;65.30
11426;DHT22;5769;47.998;7.788;2023-12-20T05:05:10;18.90;66.00
11426;DHT22;5769;47.998;7.788;2023-12-20T05:07:37;18.90;65.30
11426;DHT22;5769;47.998;7.788;2023-12-20T05:10:04;18.90;65.30
11426;DHT22;5769;47.998;7.788;2023-12-20T05:12:33;18.90;65.30
11426;DHT22;5769;47.998;7.788;2023-12-20T05:15:01;18.90;65.30
11426;DHT22;5769;47.998;7.788;2023-12-20T05:17:28;18.90;65.30
11426;DHT22;5769;47.998;7.788;2023-12-20T05:19:55;18.90;65.30
11426;DHT22;5769;47.998;7.788;2023-12-20T05:22:21;18.90;65.20
11426;DHT22;5769;47.998;7.788;2023-12-20T05:24:48;18.90;65.20
11426;DHT22;5769;47.998;7.788;2023-12-20T05:27:15;18.90;65.20
11426;DHT22;5769;47.998;7.788;2023-12-20T05:29:41;18.90;65.20
11426;DHT22;5769;47.998;7.788;2023-12-20T05:32:10;18.90;65.20
11426;DHT22;5769;47.998;7.788;2023-12-20T05:34:37;18.90;65.20
11426;DHT22;5769;47.998;7.788;2023-12-20T05:37:04;18.90;65.20
11426;DHT22;5769;47.998;7.788;2023-12-20T05:39:30;18.90;65.20
11426;DHT22;5769;47.998;7.788;2023-12-20T05:41:57;18.90;65.20
11426;DHT22;5769;47.998;7.788;2023-12-20T05:44:24;18.90;65.20
11426;DHT22;5769;47.998;7.788;2023-12-20T05:46:51;18.80;65.20
11426;DHT22;5769;47.998;7.788;2023-12-20T05:49:19;18.90;65.20
11426;DHT22;5769;47.998;7.788;2023-12-20T05:51:47;18.80;65.10
11426;DHT22;5769;47.998;7.788;2023-12-20T05:54:14;18.80;65.20
11426;DHT22;5769;47.998;7.788;2023-12-20T05:56:40;18.90;65.20
11426;DHT22;5769;47.998;7.788;2023-12-20T05:59:08;18.80;65.10
11426;DHT22;5769;47.998;7.788;2023-12-20T06:01:35;18.80;65.10
11426;DHT22;5769;47.998;7.788;2023-12-20T06:04:02;18.80;65.10
11426;DHT22;5769;47.998;7.788;2023-12-20T06:06:31;18.80;65.10
11426;DHT22;5769;47.998;7.788;2023-12-20T06:08:58;18.80;65.10
11426;DHT22;5769;47.998;7.788;2023-12-20T06:11:25;18.90;65.20
11426;DHT22;5769;47.998;7.788;2023-12-20T06:13:53;18.80;65.20
11426;DHT22;5769;47.998;7.788;2023-12-20T06:16:22;18.90;65.20
11426;DHT22;5769;47.998;7.788;2023-12-20T06:18:49;18.80;65.20
11426;DHT22;5769;47.998;7.788;2023-12-20T06:21:16;18.80;65.20
11426;DHT22;5769;47.998;7.788;2023-12-20T06:23:44;18.80;65.10
11426;DHT22;5769;47.998;7.788;2023-12-20T06:26:11;18.80;65.10
11426;DHT22;5769;47.998;7.788;2023-12-20T06:28:38;18.90;65.20
11426;DHT22;5769;47.998;7.788;2023-12-20T06:31:04;18.80;65.20
11426;DHT22;5769;47.998;7.788;2023-12-20T06:33:31;18.80;65.20
11426;DHT22;5769;47.998;7.788;2023-12-20T06:35:58;18.90;65.30
11426;DHT22;5769;47.998;7.788;2023-12-20T06:38:24;18.80;65.20
11426;DHT22;5769;47.998;7.788;2023-12-20T06:40:53;18.80;65.30
11426;DHT22;5769;47.998;7.788;2023-12-20T06:43:22;18.80;65.30
11426;DHT22;5769;47.998;7.788;2023-12-20T06:45:49;18.80;65.30
11426;DHT22;5769;47.998;7.788;2023-12-20T06:48:16;18.80;65.40
11426;DHT22;5769;47.998;7.788;2023-12-20T06:50:43;18.80;65.40
11426;DHT22;5769;47.998;7.788;2023-12-20T06:53:09;18.90;65.40
11426;DHT22;5769;47.998;7.788;2023-12-20T06:55:36;18.80;65.40
11426;DHT22;5769;47.998;7.788;2023-12-20T06:58:05;18.90;65.40
11426;DHT22;5769;47.998;7.788;2023-12-20T07:00:32;18.80;66.10
11426;DHT22;5769;47.998;7.788;2023-12-20T07:02:59;18.80;65.40
11426;DHT22;5769;47.998;7.788;2023-12-20T07:05:26;18.80;65.40
11426;DHT22;5769;47.998;7.788;2023-12-20T07:07:53;18.80;65.40
11426;DHT22;5769;47.998;7.788;2023-12-20T07:10:19;18.80;65.40
11426;DHT22;5769;47.998;7.788;2023-12-20T07:12:46;18.80;65.40
11426;DHT22;5769;47.998;7.788;2023-12-20T07:15:15;18.80;65.40
11426;DHT22;5769;47.998;7.788;2023-12-20T07:17:42;18.80;65.40
11426;DHT22;5769;47.998;7.788;2023-12-20T07:20:10;18.80;65.40
11426;DHT22;5769;47.998;7.788;2023-12-20T07:22:37;18.80;65.40
11426;DHT22;5769;47.998;7.788;2023-12-20T07:25:05;18.80;65.40
11426;DHT22;5769;47.998;7.788;2023-12-20T07:27:32;18.80;65.40
11426;DHT22;5769;47.998;7.788;2023-12-20T07:29:59;18.80;65.40
11426;DHT22;5769;47.998;7.788;2023-12-20T07:32:27;18.80;65.40
11426;DHT22;5769;47.998;7.788;2023-12-20T07:34:53;18.80;65.40
11426;DHT22;5769;47.998;7.788;2023-12-20T07:37:20;18.80;65.40
11426;DHT22;5769;47.998;7.788;2023-12-20T07:39:47;18.80;65.40
11426;DHT22;5769;47.998;7.788;2023-12-20T07:42:14;18.80;65.40
11426;DHT22;5769;47.998;7.788;2023-12-20T07:44:41;18.90;65.40
11426;DHT22;5769;47.998;7.788;2023-12-20T07:47:08;18.80;65.40
11426;DHT22;5769;47.998;7.788;2023-12-20T07:49:36;18.80;65.40
11426;DHT22;5769;47.998;7.788;2023-12-20T07:52:03;18.90;65.40
11426;DHT22;5769;47.998;7.788;2023-12-20T07:54:29;18.80;65.40
11426;DHT22;5769;47.998;7.788;2023-12-20T07:56:57;18.80;65.40
11426;DHT22;5769;47.998;7.788;2023-12-20T07:59:24;18.80;65.40
11426;DHT22;5769;47.998;7.788;2023-12-20T08:01:51;18.80;65.40
11426;DHT22;5769;47.998;7.788;2023-12-20T08:04:17;18.80;65.30
11426;DHT22;5769;47.998;7.788;2023-12-20T08:06:46;18.80;65.40
11426;DHT22;5769;47.998;7.788;2023-12-20T08:09:12;18.80;65.40
11426;DHT22;5769;47.998;7.788;2023-12-20T08:11:40;18.80;65.40
11426;DHT22;5769;47.998;7.788;2023-12-20T08:14:11;18.80;65.40
11426;DHT22;5769;47.998;7.788;2023-12-20T08:16:38;18.80;65.30
11426;DHT22;5769;47.998;7.788;2023-12-20T08:19:04;18.80;65.40
11426;DHT22;5769;47.998;7.788;2023-12-20T08:21:31;18.80;65.30
11426;DHT22;5769;47.998;7.788;2023-12-20T08:23:59;18.80;65.40
11426;DHT22;5769;47.998;7.788;2023-12-20T08:26:26;18.80;65.40
11426;DHT22;5769;47.998;7.788;2023-12-20T08:28:53;18.80;65.40
11426;DHT22;5769;47.998;7.788;2023-12-20T08:31:19;18.80;65.40
11426;DHT22;5769;47.998;7.788;2023-12-20T08:33:47;18.80;65.40
11426;DHT22;5769;47.998;7.788;2023-12-20T08:36:14;18.80;65.40
11426;DHT22;5769;47.998;7.788;2023-12-20T08:38:43;18.80;65.40
11426;DHT22;5769;47.998;7.788;2023-12-20T08:41:11;18.80;65.50
11426;DHT22;5769;47.998;7.788;2023-12-20T08:43:38;18.80;65.50
11426;DHT22;5769;47.998;7.788;2023-12-20T08:46:05;18.80;65.50
11426;DHT22;5769;47.998;7.788;2023-12-20T08:48:32;18.80;65.50
11426;DHT22;5769;47.998;7.788;2023-12-20T08:50:59;18.80;65.50
11426;DHT22;5769;47.998;7.788;2023-12-20T08:53:26;18.80;65.50
11426;DHT22;5769;47.998;7.788;2023-12-20T08:55:53;18.80;65.40
11426;DHT22;5769;47.998;7.788;2023-12-20T08:58:21;18.80;65.40
11426;DHT22;5769;47.998;7.788;2023-12-20T09:00:48;18.80;65.40
11426;DHT22;5769;47.998;7.788;2023-12-20T09:03:15;18.80;65.40
11426;DHT22;5769;47.998;7.788;2023-12-20T09:05:42;18.80;65.40
11426;DHT22;5769;47.998;7.788;2023-12-20T09:08:09;18.80;65.40
11426;DHT22;5769;47.998;7.788;2023-12-20T09:10:36;18.80;65.40
11426;DHT22;5769;47.998;7.788;2023-12-20T09:13:03;18.80;65.40
11426;DHT22;5769;47.998;7.788;2023-12-20T09:15:31;18.80;65.40
11426;DHT22;5769;47.998;7.788;2023-12-20T09:17:59;18.80;65.40
11426;DHT22;5769;47.998;7.788;2023-12-20T09:20:26;18.80;65.40
11426;DHT22;5769;47.998;7.788;2023-12-20T09:22:53;18.80;65.40
11426;DHT22;5769;47.998;7.788;2023-12-20T09:25:20;18.80;65.40
11426;DHT22;5769;47.998;7.788;2023-12-20T09:27:47;18.80;65.40
11426;DHT22;5769;47.998;7.788;2023-12-20T09:30:14;18.80;65.50
11426;DHT22;5769;47.998;7.788;2023-12-20T09:32:45;18.80;65.50
11426;DHT22;5769;47.998;7.788;2023-12-20T09:35:12;18.80;65.50
11426;DHT22;5769;47.998;7.788;2023-12-20T09:37:42;18.80;65.50
11426;DHT22;5769;47.998;7.788;2023-12-20T09:40:13;18.80;65.50
11426;DHT22;5769;47.998;7.788;2023-12-20T09:42:44;18.80;65.50
11426;DHT22;5769;47.998;7.788;2023-12-20T09:45:19;18.80;65.40
11426;DHT22;5769;47.998;7.788;2023-12-20T09:47:49;18.80;65.20
11426;DHT22;5769;47.998;7.788;2023-12-20T09:50:17;18.80;65.10
11426;DHT22;5769;47.998;7.788;2023-12-20T09:52:46;18.80;65.10
11426;DHT22;5769;47.998;7.788;2023-12-20T09:55:17;18.80;65.20
11426;DHT22;5769;47.998;7.788;2023-12-20T09:57:44;18.80;65.10
11426;DHT22;5769;47.998;7.788;2023-12-20T10:00:12;18.80;65.10
11426;DHT22;5769;47.998;7.788;2023-12-20T10:02:50;18.80;65.10
11426;DHT22;5769;47.998;7.788;2023-12-20T10:05:27;18.80;65.10
11426;DHT22;5769;47.998;7.788;2023-12-20T10:07:53;18.80;65.10
11426;DHT22;5769;47.998;7.788;2023-12-20T10:10:20;18.80;65.10
11426;DHT22;5769;47.998;7.788;2023-12-20T10:13:02;18.80;65.10
11426;DHT22;5769;47.998;7.788;2023-12-20T10:15:29;18.80;65.10
11426;DHT22;5769;47.998;7.788;2023-12-20T10:17:56;18.80;65.10
11426;DHT22;5769;47.998;7.788;2023-12-20T10:20:24;18.80;65.10
11426;DHT22;5769;47.998;7.788;2023-12-20T10:22:52;18.80;65.10
11426;DHT22;5769;47.998;7.788;2023-12-20T10:25:21;18.80;65.10
11426;DHT22;5769;47.998;7.788;2023-12-20T10:27:49;18.80;65.10
11426;DHT22;5769;47.998;7.788;2023-12-20T10:30:16;18.80;65.80
11426;DHT22;5769;47.998;7.788;2023-12-20T10:32:43;18.80;65.10
11426;DHT22;5769;47.998;7.788;2023-12-20T10:35:10;18.80;65.10
11426;DHT22;5769;47.998;7.788;2023-12-20T10:37:45;18.80;65.20
11426;DHT22;5769;47.998;7.788;2023-12-20T10:40:13;18.80;65.20
11426;DHT22;5769;47.998;7.788;2023-12-20T10:42:49;18.80;65.20
11426;DHT22;5769;47.998;7.788;2023-12-20T10:45:17;18.80;65.30
11426;DHT22;5769;47.998;7.788;2023-12-20T10:47:46;18.80;65.30
11426;DHT22;5769;47.998;7.788;2023-12-20T10:50:13;18.80;65.30
11426;DHT22;5769;47.998;7.788;2023-12-20T10:52:42;18.80;65.30
11426;DHT22;5769;47.998;7.788;2023-12-20T10:55:11;18.80;65.30
11426;DHT22;5769;47.998;7.788;2023-12-20T10:57:41;18.80;65.30
11426;DHT22;5769;47.998;7.788;2023-12-20T11:00:11;18.80;65.20
11426;DHT22;5769;47.998;7.788;2023-12-20T11:02:40;18.80;65.20
11426;DHT22;5769;47.998;7.788;2023-12-20T11:05:18;18.80;65.30
11426;DHT22;5769;47.998;7.788;2023-12-20T11:07:50;18.80;65.20
11426;DHT22;5769;47.998;7.788;2023-12-20T11:10:21;18.80;65.20
11426;DHT22;5769;47.998;7.788;2023-12-20T11:13:01;18.80;65.20
11426;DHT22;5769;47.998;7.788;2023-12-20T11:15:35;18.80;65.20
11426;DHT22;5769;47.998;7.788;2023-12-20T11:18:04;18.80;65.20
11426;DHT22;5769;47.998;7.788;2023-12-20T11:20:36;18.80;65.20
11426;DHT22;5769;47.998;7.788;2023-12-20T11:23:05;18.80;65.20
11426;DHT22;5769;47.998;7.788;2023-12-20T11:25:47;18.80;65.20
11426;DHT22;5769;47.998;7.788;2023-12-20T11:28:21;18.80;65.20
11426;DHT22;5769;47.998;7.788;2023-12-20T11:30:50;18.80;65.20
11426;DHT22;5769;47.998;7.788;2023-12-20T11:33:21;18.80;65.90
11426;DHT22;5769;47.998;7.788;2023-12-20T11:35:48;18.80;65.10
11426;DHT22;5769;47.998;7.788;2023-12-20T11:38:17;18.80;65.10
11426;DHT22;5769;47.998;7.788;2023-12-20T11:40:48;18.80;65.10
11426;DHT22;5769;47.998;7.788;2023-12-20T11:43:31;18.80;65.10
11426;DHT22;5769;47.998;7.788;2023-12-20T11:46:02;18.80;65.10
11426;DHT22;5769;47.998;7.788;2023-12-20T11:48:30;18.80;65.10
11426;DHT22;5769;47.998;7.788;2023-12-20T11:51:00;18.80;65.00
11426;DHT22;5769;47.998;7.788;2023-12-20T11:53:34;18.80;64.90
11426;DHT22;5769;47.998;7.788;2023-12-20T11:56:04;18.80;64.90
11426;DHT22;5769;47.998;7.788;2023-12-20T11:58:30;18.80;64.90
11426;DHT22;5769;47.998;7.788;2023-12-20T12:00:57;18.80;64.90
11426;DHT22;5769;47.998;7.788;2023-12-20T12:03:24;18.80;64.90
11426;DHT22;5769;47.998;7.788;2023-12-20T12:05:51;18.80;64.90
11426;DHT22;5769;47.998;7.788;2023-12-20T12:08:17;18.80;64.90
11426;DHT22;5769;47.998;7.788;2023-12-20T12:10:45;18.80;64.80
11426;DHT22;5769;47.998;7.788;2023-12-20T12:13:12;18.80;64.80
11426;DHT22;5769;47.998;7.788;2023-12-20T12:15:40;18.80;64.80
11426;DHT22;5769;47.998;7.788;2023-12-20T12:18:07;18.80;64.80
11426;DHT22;5769;47.998;7.788;2023-12-20T12:20:35;18.80;64.70
11426;DHT22;5769;47.998;7.788;2023-12-20T12:23:03;18.80;64.70
11426;DHT22;5769;47.998;7.788;2023-12-20T12:25:31;18.80;64.70
11426;DHT22;5769;47.998;7.788;2023-12-20T12:28:01;18.80;64.70
11426;DHT22;5769;47.998;7.788;2023-12-20T12:30:28;18.80;64.70
11426;DHT22;5769;47.998;7.788;2023-12-20T12:32:56;18.80;64.70
11426;DHT22;5769;47.998;7.788;2023-12-20T12:35:23;18.80;64.70
11426;DHT22;5769;47.998;7.788;2023-12-20T12:37:51;18.80;64.70
11426;DHT22;5769;47.998;7.788;2023-12-20T12:40:20;18.80;64.70
11426;DHT22;5769;47.998;7.788;2023-12-20T12:42:47;18.80;64.70
11426;DHT22;5769;47.998;7.788;2023-12-20T12:45:18;18.80;64.70
11426;DHT22;5769;47.998;7.788;2023-12-20T12:47:45;18.80;64.70
11426;DHT22;5769;47.998;7.788;2023-12-20T12:50:12;18.80;64.70
11426;DHT22;5769;47.998;7.788;2023-12-20T12:52:42;18.80;64.70
11426;DHT22;5769;47.998;7.788;2023-12-20T12:55:11;18.80;64.70
11426;DHT22;5769;47.998;7.788;2023-12-20T12:57:41;18.80;64.70
11426;DHT22;5769;47.998;7.788;2023-12-20T13:00:10;18.80;64.70
11426;DHT22;5769;47.998;7.788;2023-12-20T13:02:41;18.80;64.60
11426;DHT22;5769;47.998;7.788;2023-12-20T13:05:11;18.80;64.60
11426;DHT22;5769;47.998;7.788;2023-12-20T13:07:38;18.80;64.60
11426;DHT22;5769;47.998;7.788;2023-12-20T13:10:06;18.80;64.60
11426;DHT22;5769;47.998;7.788;2023-12-20T13:12:32;18.80;64.50
11426;DHT22;5769;47.998;7.788;2023-12-20T13:15:00;18.80;64.50
11426;DHT22;5769;47.998;7.788;2023-12-20T13:17:30;18.80;64.50
11426;DHT22;5769;47.998;7.788;2023-12-20T13:19:58;18.80;64.50
11426;DHT22;5769;47.998;7.788;2023-12-20T13:22:25;18.80;64.50
11426;DHT22;5769;47.998;7.788;2023-12-20T13:24:52;18.80;64.50
11426;DHT22;5769;47.998;7.788;2023-12-20T13:27:18;18.80;64.50
11426;DHT22;5769;47.998;7.788;2023-12-20T13:29:45;18.80;64.50
11426;DHT22;5769;47.998;7.788;2023-12-20T13:32:12;18.80;64.50
11426;DHT22;5769;47.998;7.788;2023-12-20T13:34:39;18.80;64.50
11426;DHT22;5769;47.998;7.788;2023-12-20T13:37:07;18.80;64.40
11426;DHT22;5769;47.998;7.788;2023-12-20T13:39:34;18.80;64.40
11426;DHT22;5769;47.998;7.788;2023-12-20T13:42:00;18.80;64.30
11426;DHT22;5769;47.998;7.788;2023-12-20T13:44:27;18.80;64.30
11426;DHT22;5769;47.998;7.788;2023-12-20T13:46:54;18.80;64.30
11426;DHT22;5769;47.998;7.788;2023-12-20T13:49:20;18.80;64.30
11426;DHT22;5769;47.998;7.788;2023-12-20T13:51:51;18.80;64.30
11426;DHT22;5769;47.998;7.788;2023-12-20T13:54:21;18.80;64.30
11426;DHT22;5769;47.998;7.788;2023-12-20T13:56:48;18.80;64.30
11426;DHT22;5769;47.998;7.788;2023-12-20T13:59:15;18.80;64.20
11426;DHT22;5769;47.998;7.788;2023-12-20T14:01:41;18.80;64.30
11426;DHT22;5769;47.998;7.788;2023-12-20T14:04:08;18.80;64.30
11426;DHT22;5769;47.998;7.788;2023-12-20T14:06:36;18.80;64.30
11426;DHT22;5769;47.998;7.788;2023-12-20T14:09:03;18.70;64.20
11426;DHT22;5769;47.998;7.788;2023-12-20T14:11:31;18.80;64.30
11426;DHT22;5769;47.998;7.788;2023-12-20T14:13:58;18.80;64.30
11426;DHT22;5769;47.998;7.788;2023-12-20T14:16:27;18.80;64.30
11426;DHT22;5769;47.998;7.788;2023-12-20T14:18:54;18.80;64.30
11426;DHT22;5769;47.998;7.788;2023-12-20T14:21:22;18.80;64.30
11426;DHT22;5769;47.998;7.788;2023-12-20T14:23:49;18.80;64.30
11426;DHT22;5769;47.998;7.788;2023-12-20T14:26:17;18.80;64.30
11426;DHT22;5769;47.998;7.788;2023-12-20T14:28:48;18.80;64.30
11426;DHT22;5769;47.998;7.788;2023-12-20T14:31:15;18.70;64.30
11426;DHT22;5769;47.998;7.788;2023-12-20T14:33:41;18.70;64.30
11426;DHT22;5769;47.998;7.788;2023-12-20T14:36:08;18.70;64.30
11426;DHT22;5769;47.998;7.788;2023-12-20T14:38:35;18.80;64.40
11426;DHT22;5769;47.998;7.788;2023-12-20T14:41:02;18.80;64.40
11426;DHT22;5769;47.998;7.788;2023-12-20T14:43:29;18.70;64.30
11426;DHT22;5769;47.998;7.788;2023-12-20T14:45:57;18.80;64.40
11426;DHT22;5769;47.998;7.788;2023-12-20T14:48:24;18.80;64.40
11426;DHT22;5769;47.998;7.788;2023-12-20T14:50:52;18.70;64.40
11426;DHT22;5769;47.998;7.788;2023-12-20T14:53:19;18.80;64.40
11426;DHT22;5769;47.998;7.788;2023-12-20T14:55:46;18.80;64.40
11426;DHT22;5769;47.998;7.788;2023-12-20T14:58:13;18.70;64.40
11426;DHT22;5769;47.998;7.788;2023-12-20T15:00:41;18.70;64.40
11426;DHT22;5769;47.998;7.788;2023-12-20T15:03:09;18.70;64.40
11426;DHT22;5769;47.998;7.788;2023-12-20T15:05:36;18.80;64.40
11426;DHT22;5769;47.998;7.788;2023-12-20T15:08:03;18.70;65.10
11426;DHT22;5769;47.998;7.788;2023-12-20T15:10:30;18.80;64.40
11426;DHT22;5769;47.998;7.788;2023-12-20T15:12:57;18.80;64.40
11426;DHT22;5769;47.998;7.788;2023-12-20T15:15:24;18.80;64.40
11426;DHT22;5769;47.998;7.788;2023-12-20T15:17:52;18.70;64.30
11426;DHT22;5769;47.998;7.788;2023-12-20T15:20:22;18.70;64.30
11426;DHT22;5769;47.998;7.788;2023-12-20T15:22:51;18.70;64.30
11426;DHT22;5769;47.998;7.788;2023-12-20T15:25:19;18.70;64.30
11426;DHT22;5769;47.998;7.788;2023-12-20T15:27:47;18.70;64.30
11426;DHT22;5769;47.998;7.788;2023-12-20T15:30:18;18.80;64.30
11426;DHT22;5769;47.998;7.788;2023-12-20T15:32:45;18.70;64.30
11426;DHT22;5769;47.998;7.788;2023-12-20T15:35:17;18.70;64.20
11426;DHT22;5769;47.998;7.788;2023-12-20T15:37:51;18.80;64.30
11426;DHT22;5769;47.998;7.788;2023-12-20T15:40:18;18.70;64.20
11426;DHT22;5769;47.998;7.788;2023-12-20T15:42:44;18.70;64.20
11426;DHT22;5769;47.998;7.788;2023-12-20T15:45:11;18.70;64.30
11426;DHT22;5769;47.998;7.788;2023-12-20T15:47:38;18.70;64.20